sensor_id;sensor_type;location;lat;lon;timestamp;pressure;altitude;pressure_sealevel;temperature;humidity
54920;BME280;63804;53.120;8.764;2023-05-25T00:01:36;102622.84;;;12.74;68.35
54920;BME280;63804;53.120;8.764;2023-05-25T00:04:03;102616.97;;;12.84;67.88
54920;BME280;63804;53.120;8.764;2023-05-25T00:06:31;102621.34;;;12.85;67.90
54920;BME280;63804;53.120;8.764;2023-05-25T00:08:58;102625.34;;;12.77;68.36
54920;BME280;63804;53.120;8.764;2023-05-25T00:11:26;102620.81;;;12.79;68.45
54920;BME280;63804;53.120;8.764;2023-05-25T00:13:53;102620.63;;;12.82;68.30
54920;BME280;63804;53.120;8.764;2023-05-25T00:16:20;102622.44;;;12.81;68.48
54920;BME280;63804;53.120;8.764;2023-05-25T00:18:47;102625.88;;;12.83;68.54
54920;BME280;63804;53.120;8.764;2023-05-25T00:21:15;102626.22;;;12.77;68.56
54920;BME280;63804;53.120;8.764;2023-05-25T00:23:42;102623.03;;;12.53;69.60
54920;BME280;63804;53.120;8.764;2023-05-25T00:26:09;102623.59;;;12.42;70.05
54920;BME280;63804;53.120;8.764;2023-05-25T00:28:36;102619.84;;;12.47;70.33
54920;BME280;63804;53.120;8.764;2023-05-25T00:31:03;102618.72;;;12.51;70.12
54920;BME280;63804;53.120;8.764;2023-05-25T00:33:30;102625.94;;;12.49;70.03
54920;BME280;63804;53.120;8.764;2023-05-25T00:35:57;102619.63;;;12.34;70.81
54920;BME280;63804;53.120;8.764;2023-05-25T00:38:26;102620.16;;;12.40;70.60
54920;BME280;63804;53.120;8.764;2023-05-25T00:40:55;102621.53;;;12.48;70.08
54920;BME280;63804;53.120;8.764;2023-05-25T00:43:23;102616.13;;;12.66;69.96
54920;BME280;63804;53.120;8.764;2023-05-25T00:45:50;102609.09;;;12.65;69.25
54920;BME280;63804;53.120;8.764;2023-05-25T00:48:17;102615.00;;;12.37;70.72
54920;BME280;63804;53.120;8.764;2023-05-25T00:50:44;102614.53;;;12.47;70.62
54920;BME280;63804;53.120;8.764;2023-05-25T00:53:13;102608.50;;;12.60;69.77
54920;BME280;63804;53.120;8.764;2023-05-25T00:55:44;102611.81;;;12.48;70.41
54920;BME280;63804;53.120;8.764;2023-05-25T00:58:16;102613.34;;;12.35;71.26
54920;BME280;63804;53.120;8.764;2023-05-25T01:00:48;102610.16;;;12.46;70.96
54920;BME280;63804;53.120;8.764;2023-05-25T01:03:18;102612.31;;;12.55;70.14
54920;BME280;63804;53.120;8.764;2023-05-25T01:05:49;102611.75;;;12.65;69.96
54920;BME280;63804;53.120;8.764;2023-05-25T01:08:19;102608.00;;;12.69;69.89
54920;BME280;63804;53.120;8.764;2023-05-25T01:10:50;102616.31;;;12.63;70.24
54920;BME280;63804;53.120;8.764;2023-05-25T01:13:19;102612.88;;;12.61;70.17
54920;BME280;63804;53.120;8.764;2023-05-25T01:15:47;102602.94;;;12.65;70.11
54920;BME280;63804;53.120;8.764;2023-05-25T01:18:16;102605.28;;;12.71;70.43
54920;BME280;63804;53.120;8.764;2023-05-25T01:21:03;102612.06;;;12.77;70.17
54920;BME280;63804;53.120;8.764;2023-05-25T01:23:46;102608.69;;;12.73;70.11
54920;BME280;63804;53.120;8.764;2023-05-25T01:26:15;102614.00;;;12.73;70.16
54920;BME280;63804;53.120;8.764;2023-05-25T01:28:50;102614.16;;;12.70;70.60
54920;BME280;63804;53.120;8.764;2023-05-25T01:31:20;102619.69;;;12.67;70.47
54920;BME280;63804;53.120;8.764;2023-05-25T01:33:49;102625.44;;;12.58;70.94
54920;BME280;63804;53.120;8.764;2023-05-25T01:36:18;102618.28;;;12.60;70.64
54920;BME280;63804;53.120;8.764;2023-05-25T01:38:45;102617.22;;;12.62;70.62
54920;BME280;63804;53.120;8.764;2023-05-25T01:41:13;102619.28;;;12.75;70.37
54920;BME280;63804;53.120;8.764;2023-05-25T01:43:40;102617.78;;;12.69;69.99
54920;BME280;63804;53.120;8.764;2023-05-25T01:46:18;102614.66;;;12.78;69.93
54920;BME280;63804;53.120;8.764;2023-05-25T01:49:06;102623.47;;;12.79;70.21
54920;BME280;63804;53.120;8.764;2023-05-25T01:54:16;102628.50;;;12.67;70.78
54920;BME280;63804;53.120;8.764;2023-05-25T01:56:46;102632.78;;;12.70;70.50
54920;BME280;63804;53.120;8.764;2023-05-25T01:59:15;102630.38;;;12.65;70.71
54920;BME280;63804;53.120;8.764;2023-05-25T02:01:45;102634.44;;;12.55;70.89
54920;BME280;63804;53.120;8.764;2023-05-25T02:04:17;102634.69;;;12.51;71.10
54920;BME280;63804;53.120;8.764;2023-05-25T02:06:47;102640.72;;;12.37;72.04
54920;BME280;63804;53.120;8.764;2023-05-25T02:09:14;102641.09;;;12.29;72.46
54920;BME280;63804;53.120;8.764;2023-05-25T02:11:42;102637.34;;;12.33;72.18
54920;BME280;63804;53.120;8.764;2023-05-25T02:14:09;102639.38;;;12.28;72.56
54920;BME280;63804;53.120;8.764;2023-05-25T02:16:36;102635.78;;;12.29;72.39
54920;BME280;63804;53.120;8.764;2023-05-25T02:19:04;102633.44;;;12.23;72.32
54920;BME280;63804;53.120;8.764;2023-05-25T02:21:31;102631.03;;;12.18;72.50
54920;BME280;63804;53.120;8.764;2023-05-25T02:23:58;102633.34;;;12.07;73.07
54920;BME280;63804;53.120;8.764;2023-05-25T02:26:26;102629.19;;;12.02;73.49
54920;BME280;63804;53.120;8.764;2023-05-25T02:28:53;102633.44;;;12.06;73.39
54920;BME280;63804;53.120;8.764;2023-05-25T02:31:23;102626.84;;;12.13;73.22
54920;BME280;63804;53.120;8.764;2023-05-25T02:33:50;102629.59;;;12.11;73.24
54920;BME280;63804;53.120;8.764;2023-05-25T02:36:17;102630.69;;;12.07;73.38
54920;BME280;63804;53.120;8.764;2023-05-25T02:38:44;102625.06;;;11.96;73.98
54920;BME280;63804;53.120;8.764;2023-05-25T02:41:14;102629.50;;;11.95;73.96
54920;BME280;63804;53.120;8.764;2023-05-25T02:43:42;102630.13;;;11.83;74.11
54920;BME280;63804;53.120;8.764;2023-05-25T02:46:09;102638.34;;;11.96;73.62
54920;BME280;63804;53.120;8.764;2023-05-25T02:48:36;102640.03;;;11.97;73.44
54920;BME280;63804;53.120;8.764;2023-05-25T02:51:04;102644.34;;;12.00;73.54
54920;BME280;63804;53.120;8.764;2023-05-25T02:53:31;102632.31;;;11.92;73.85
54920;BME280;63804;53.120;8.764;2023-05-25T02:55:58;102627.22;;;11.88;74.17
54920;BME280;63804;53.120;8.764;2023-05-25T02:58:26;102632.47;;;11.89;74.18
54920;BME280;63804;53.120;8.764;2023-05-25T03:00:53;102631.31;;;11.76;74.65
54920;BME280;63804;53.120;8.764;2023-05-25T03:03:21;102638.00;;;11.66;74.92
54920;BME280;63804;53.120;8.764;2023-05-25T03:05:48;102641.28;;;11.71;74.54
54920;BME280;63804;53.120;8.764;2023-05-25T03:08:15;102644.88;;;11.70;74.64
54920;BME280;63804;53.120;8.764;2023-05-25T03:10:43;102654.78;;;11.66;75.00
54920;BME280;63804;53.120;8.764;2023-05-25T03:13:10;102653.91;;;11.85;74.27
54920;BME280;63804;53.120;8.764;2023-05-25T03:15:37;102662.84;;;11.84;74.59
54920;BME280;63804;53.120;8.764;2023-05-25T03:18:06;102657.53;;;11.84;74.68
54920;BME280;63804;53.120;8.764;2023-05-25T03:20:33;102655.50;;;11.89;74.46
54920;BME280;63804;53.120;8.764;2023-05-25T03:23:03;102661.22;;;11.99;74.80
54920;BME280;63804;53.120;8.764;2023-05-25T03:25:30;102659.75;;;12.10;74.18
54920;BME280;63804;53.120;8.764;2023-05-25T03:27:57;102655.22;;;12.12;73.98
54920;BME280;63804;53.120;8.764;2023-05-25T03:30:24;102660.44;;;11.97;74.70
54920;BME280;63804;53.120;8.764;2023-05-25T03:32:51;102658.56;;;11.99;74.55
54920;BME280;63804;53.120;8.764;2023-05-25T03:35:19;102658.88;;;11.92;75.16
54920;BME280;63804;53.120;8.764;2023-05-25T03:37:46;102661.59;;;11.91;75.09
54920;BME280;63804;53.120;8.764;2023-05-25T03:40:13;102659.31;;;11.83;75.15
54920;BME280;63804;53.120;8.764;2023-05-25T03:42:40;102671.91;;;11.97;75.06
54920;BME280;63804;53.120;8.764;2023-05-25T03:45:08;102669.94;;;11.83;75.01
54920;BME280;63804;53.120;8.764;2023-05-25T03:47:35;102674.63;;;11.77;75.64
54920;BME280;63804;53.120;8.764;2023-05-25T03:50:03;102679.97;;;11.95;74.81
54920;BME280;63804;53.120;8.764;2023-05-25T03:52:32;102673.47;;;12.01;74.76
54920;BME280;63804;53.120;8.764;2023-05-25T03:54:59;102671.66;;;12.02;74.91
54920;BME280;63804;53.120;8.764;2023-05-25T03:57:31;102668.03;;;12.04;75.13
54920;BME280;63804;53.120;8.764;2023-05-25T03:59:58;102671.94;;;12.14;74.66
54920;BME280;63804;53.120;8.764;2023-05-25T04:02:25;102670.72;;;12.22;74.54
54920;BME280;63804;53.120;8.764;2023-05-25T04:04:52;102674.56;;;12.33;73.88
54920;BME280;63804;53.120;8.764;2023-05-25T04:07:19;102679.41;;;12.25;74.17
54920;BME280;63804;53.120;8.764;2023-05-25T04:09:46;102684.31;;;12.33;74.07
54920;BME280;63804;53.120;8.764;2023-05-25T04:12:14;102680.16;;;12.27;73.85
54920;BME280;63804;53.120;8.764;2023-05-25T04:14:41;102681.88;;;12.28;74.17
54920;BME280;63804;53.120;8.764;2023-05-25T04:17:08;102694.06;;;12.32;73.77
54920;BME280;63804;53.120;8.764;2023-05-25T04:19:35;102692.22;;;12.34;73.53
54920;BME280;63804;53.120;8.764;2023-05-25T04:22:02;102689.25;;;12.40;73.20
54920;BME280;63804;53.120;8.764;2023-05-25T04:24:30;102691.81;;;12.42;73.30
54920;BME280;63804;53.120;8.764;2023-05-25T04:26:59;102687.50;;;12.39;73.31
54920;BME280;63804;53.120;8.764;2023-05-25T04:29:28;102687.59;;;12.38;73.39
54920;BME280;63804;53.120;8.764;2023-05-25T04:31:55;102690.16;;;12.39;73.47
54920;BME280;63804;53.120;8.764;2023-05-25T04:34:22;102689.38;;;12.55;72.97
54920;BME280;63804;53.120;8.764;2023-05-25T04:36:49;102683.94;;;12.58;72.88
54920;BME280;63804;53.120;8.764;2023-05-25T04:39:16;102685.56;;;12.60;72.63
54920;BME280;63804;53.120;8.764;2023-05-25T04:41:43;102694.00;;;12.51;72.90
54920;BME280;63804;53.120;8.764;2023-05-25T04:44:11;102695.94;;;12.48;72.93
54920;BME280;63804;53.120;8.764;2023-05-25T04:46:39;102705.28;;;12.56;73.09
54920;BME280;63804;53.120;8.764;2023-05-25T04:49:06;102703.22;;;12.61;72.72
54920;BME280;63804;53.120;8.764;2023-05-25T04:51:38;102698.72;;;12.63;72.48
54920;BME280;63804;53.120;8.764;2023-05-25T04:54:06;102696.81;;;12.65;72.16
54920;BME280;63804;53.120;8.764;2023-05-25T04:56:33;102701.13;;;12.68;72.35
54920;BME280;63804;53.120;8.764;2023-05-25T04:59:00;102702.84;;;12.69;72.13
54920;BME280;63804;53.120;8.764;2023-05-25T05:01:27;102704.34;;;12.75;71.87
54920;BME280;63804;53.120;8.764;2023-05-25T05:03:55;102701.59;;;12.76;71.75
54920;BME280;63804;53.120;8.764;2023-05-25T05:06:22;102707.00;;;12.75;72.13
54920;BME280;63804;53.120;8.764;2023-05-25T05:08:51;102712.69;;;12.84;71.67
54920;BME280;63804;53.120;8.764;2023-05-25T05:11:18;102708.16;;;12.86;71.53
54920;BME280;63804;53.120;8.764;2023-05-25T05:13:45;102709.41;;;12.79;71.91
54920;BME280;63804;53.120;8.764;2023-05-25T05:16:12;102716.44;;;12.80;72.06
54920;BME280;63804;53.120;8.764;2023-05-25T05:18:40;102722.88;;;12.93;71.64
54920;BME280;63804;53.120;8.764;2023-05-25T05:21:07;102724.78;;;13.07;71.35
54920;BME280;63804;53.120;8.764;2023-05-25T05:23:34;102726.69;;;13.05;70.88
54920;BME280;63804;53.120;8.764;2023-05-25T05:26:01;102726.59;;;13.07;71.00
54920;BME280;63804;53.120;8.764;2023-05-25T05:28:30;102726.09;;;13.16;70.86
54920;BME280;63804;53.120;8.764;2023-05-25T05:30:57;102718.13;;;13.16;70.84
54920;BME280;63804;53.120;8.764;2023-05-25T05:33:25;102723.94;;;13.24;70.58
54920;BME280;63804;53.120;8.764;2023-05-25T05:35:52;102723.06;;;13.24;70.48
54920;BME280;63804;53.120;8.764;2023-05-25T05:38:20;102720.34;;;13.25;70.50
54920;BME280;63804;53.120;8.764;2023-05-25T05:40:47;102724.94;;;13.22;70.85
54920;BME280;63804;53.120;8.764;2023-05-25T05:43:15;102723.84;;;13.26;70.71
54920;BME280;63804;53.120;8.764;2023-05-25T05:45:42;102733.28;;;13.31;70.64
54920;BME280;63804;53.120;8.764;2023-05-25T05:48:09;102736.84;;;13.32;70.50
54920;BME280;63804;53.120;8.764;2023-05-25T05:50:37;102731.25;;;13.36;70.32
54920;BME280;63804;53.120;8.764;2023-05-25T05:53:07;102729.31;;;13.40;69.98
54920;BME280;63804;53.120;8.764;2023-05-25T05:55:35;102737.34;;;13.38;69.94
54920;BME280;63804;53.120;8.764;2023-05-25T05:58:03;102734.28;;;13.46;69.89
54920;BME280;63804;53.120;8.764;2023-05-25T06:00:30;102745.28;;;13.56;69.51
54920;BME280;63804;53.120;8.764;2023-05-25T06:02:57;102734.56;;;13.57;69.19
54920;BME280;63804;53.120;8.764;2023-05-25T06:05:27;102740.72;;;13.58;68.84
54920;BME280;63804;53.120;8.764;2023-05-25T06:07:54;102744.19;;;13.60;68.81
54920;BME280;63804;53.120;8.764;2023-05-25T06:10:21;102752.16;;;13.60;68.26
54920;BME280;63804;53.120;8.764;2023-05-25T06:12:48;102753.81;;;13.62;68.57
54920;BME280;63804;53.120;8.764;2023-05-25T06:15:15;102748.31;;;13.65;68.28
54920;BME280;63804;53.120;8.764;2023-05-25T06:17:42;102754.53;;;13.82;67.79
54920;BME280;63804;53.120;8.764;2023-05-25T06:20:10;102754.25;;;13.86;67.45
54920;BME280;63804;53.120;8.764;2023-05-25T06:22:37;102756.13;;;13.84;66.92
54920;BME280;63804;53.120;8.764;2023-05-25T06:25:04;102750.91;;;13.99;66.40
54920;BME280;63804;53.120;8.764;2023-05-25T06:27:32;102751.16;;;14.10;65.87
54920;BME280;63804;53.120;8.764;2023-05-25T06:29:59;102749.72;;;14.04;65.21
54920;BME280;63804;53.120;8.764;2023-05-25T06:32:26;102751.50;;;14.04;64.62
54920;BME280;63804;53.120;8.764;2023-05-25T06:34:53;102764.91;;;14.02;64.37
54920;BME280;63804;53.120;8.764;2023-05-25T06:37:21;102758.19;;;14.11;63.95
54920;BME280;63804;53.120;8.764;2023-05-25T06:39:48;102763.78;;;14.22;63.86
54920;BME280;63804;53.120;8.764;2023-05-25T06:42:15;102767.81;;;14.29;63.79
54920;BME280;63804;53.120;8.764;2023-05-25T06:44:42;102769.72;;;14.27;63.95
54920;BME280;63804;53.120;8.764;2023-05-25T06:47:09;102770.50;;;14.29;63.90
54920;BME280;63804;53.120;8.764;2023-05-25T06:49:36;102771.50;;;14.27;64.37
54920;BME280;63804;53.120;8.764;2023-05-25T06:52:04;102774.00;;;14.30;64.55
54920;BME280;63804;53.120;8.764;2023-05-25T06:54:31;102782.53;;;14.36;64.43
54920;BME280;63804;53.120;8.764;2023-05-25T06:56:58;102781.91;;;14.47;63.98
54920;BME280;63804;53.120;8.764;2023-05-25T06:59:26;102779.31;;;14.46;63.82
54920;BME280;63804;53.120;8.764;2023-05-25T07:01:53;102782.63;;;14.51;63.59
54920;BME280;63804;53.120;8.764;2023-05-25T07:04:22;102779.78;;;14.54;63.16
54920;BME280;63804;53.120;8.764;2023-05-25T07:06:49;102785.38;;;14.49;63.07
54920;BME280;63804;53.120;8.764;2023-05-25T07:09:17;102797.41;;;14.56;62.38
54920;BME280;63804;53.120;8.764;2023-05-25T07:11:44;102794.72;;;14.56;62.10
54920;BME280;63804;53.120;8.764;2023-05-25T07:14:12;102792.75;;;14.60;62.06
54920;BME280;63804;53.120;8.764;2023-05-25T07:16:39;102789.06;;;14.62;61.42
54920;BME280;63804;53.120;8.764;2023-05-25T07:19:06;102798.66;;;14.65;61.16
54920;BME280;63804;53.120;8.764;2023-05-25T07:21:33;102794.69;;;14.72;60.92
54920;BME280;63804;53.120;8.764;2023-05-25T07:24:01;102798.31;;;14.71;60.48
54920;BME280;63804;53.120;8.764;2023-05-25T07:26:30;102794.47;;;14.61;59.73
54920;BME280;63804;53.120;8.764;2023-05-25T07:28:57;102805.56;;;14.53;59.87
54920;BME280;63804;53.120;8.764;2023-05-25T07:31:24;102803.16;;;14.49;59.58
54920;BME280;63804;53.120;8.764;2023-05-25T07:33:52;102810.13;;;14.67;59.37
54920;BME280;63804;53.120;8.764;2023-05-25T07:36:21;102816.09;;;14.86;58.86
54920;BME280;63804;53.120;8.764;2023-05-25T07:38:50;102813.94;;;14.93;58.28
54920;BME280;63804;53.120;8.764;2023-05-25T07:41:18;102816.50;;;14.95;58.32
54920;BME280;63804;53.120;8.764;2023-05-25T07:43:45;102814.22;;;15.03;58.11
54920;BME280;63804;53.120;8.764;2023-05-25T07:46:12;102813.41;;;15.17;57.98
54920;BME280;63804;53.120;8.764;2023-05-25T07:48:40;102814.47;;;15.28;56.97
54920;BME280;63804;53.120;8.764;2023-05-25T07:51:07;102817.19;;;15.43;56.49
54920;BME280;63804;53.120;8.764;2023-05-25T07:53:34;102819.66;;;15.60;55.80
54920;BME280;63804;53.120;8.764;2023-05-25T07:56:01;102814.06;;;15.65;55.85
54920;BME280;63804;53.120;8.764;2023-05-25T07:58:28;102824.16;;;15.59;56.23
54920;BME280;63804;53.120;8.764;2023-05-25T08:00:55;102810.88;;;15.44;55.92
54920;BME280;63804;53.120;8.764;2023-05-25T08:03:22;102816.13;;;15.31;56.64
54920;BME280;63804;53.120;8.764;2023-05-25T08:06:10;102824.41;;;15.26;57.29
54920;BME280;63804;53.120;8.764;2023-05-25T08:08:37;102824.47;;;15.25;57.26
54920;BME280;63804;53.120;8.764;2023-05-25T08:11:04;102827.25;;;15.23;57.21
54920;BME280;63804;53.120;8.764;2023-05-25T08:13:31;102826.66;;;15.18;57.25
54920;BME280;63804;53.120;8.764;2023-05-25T08:15:58;102831.53;;;15.11;57.32
54920;BME280;63804;53.120;8.764;2023-05-25T08:18:25;102828.72;;;14.99;57.16
54920;BME280;63804;53.120;8.764;2023-05-25T08:20:52;102828.69;;;14.84;57.25
54920;BME280;63804;53.120;8.764;2023-05-25T08:23:19;102828.50;;;14.72;56.91
54920;BME280;63804;53.120;8.764;2023-05-25T08:25:47;102831.97;;;14.74;56.66
54920;BME280;63804;53.120;8.764;2023-05-25T08:28:14;102839.06;;;14.89;56.60
54920;BME280;63804;53.120;8.764;2023-05-25T08:30:43;102844.47;;;15.03;56.23
54920;BME280;63804;53.120;8.764;2023-05-25T08:33:11;102837.66;;;15.28;55.52
54920;BME280;63804;53.120;8.764;2023-05-25T08:35:38;102837.78;;;15.55;54.35
54920;BME280;63804;53.120;8.764;2023-05-25T08:38:09;102832.16;;;15.59;54.20
54920;BME280;63804;53.120;8.764;2023-05-25T08:40:40;102838.81;;;15.52;54.65
54920;BME280;63804;53.120;8.764;2023-05-25T08:43:07;102838.81;;;15.52;54.83
54920;BME280;63804;53.120;8.764;2023-05-25T08:45:35;102840.75;;;15.50;54.44
54920;BME280;63804;53.120;8.764;2023-05-25T08:48:09;102838.47;;;15.58;53.95
54920;BME280;63804;53.120;8.764;2023-05-25T08:50:38;102843.97;;;15.55;54.34
54920;BME280;63804;53.120;8.764;2023-05-25T08:53:07;102837.13;;;15.51;54.42
54920;BME280;63804;53.120;8.764;2023-05-25T08:55:39;102831.97;;;15.48;54.49
54920;BME280;63804;53.120;8.764;2023-05-25T08:58:16;102837.97;;;15.52;54.28
54920;BME280;63804;53.120;8.764;2023-05-25T09:01:04;102840.41;;;15.71;53.21
54920;BME280;63804;53.120;8.764;2023-05-25T09:05:35;102839.72;;;15.67;53.84
54920;BME280;63804;53.120;8.764;2023-05-25T09:08:07;102840.78;;;15.79;53.48
54920;BME280;63804;53.120;8.764;2023-05-25T09:10:35;102833.81;;;15.91;53.57
54920;BME280;63804;53.120;8.764;2023-05-25T09:13:03;102838.59;;;16.00;53.23
54920;BME280;63804;53.120;8.764;2023-05-25T09:15:47;102840.78;;;15.93;53.07
54920;BME280;63804;53.120;8.764;2023-05-25T09:18:15;102839.44;;;15.86;53.34
54920;BME280;63804;53.120;8.764;2023-05-25T09:20:42;102845.09;;;15.81;53.36
54920;BME280;63804;53.120;8.764;2023-05-25T09:23:13;102851.47;;;15.79;53.55
54920;BME280;63804;53.120;8.764;2023-05-25T09:25:42;102854.44;;;15.89;53.63
54920;BME280;63804;53.120;8.764;2023-05-25T09:28:10;102854.91;;;15.95;53.51
54920;BME280;63804;53.120;8.764;2023-05-25T09:30:40;102858.25;;;15.99;53.32
54920;BME280;63804;53.120;8.764;2023-05-25T09:33:14;102853.38;;;16.05;53.36
54920;BME280;63804;53.120;8.764;2023-05-25T09:35:44;102852.31;;;16.22;52.55
54920;BME280;63804;53.120;8.764;2023-05-25T09:38:15;102865.09;;;16.17;51.94
54920;BME280;63804;53.120;8.764;2023-05-25T09:40:43;102863.19;;;16.19;52.15
54920;BME280;63804;53.120;8.764;2023-05-25T09:43:12;102859.47;;;16.22;51.96
54920;BME280;63804;53.120;8.764;2023-05-25T09:45:58;102863.75;;;16.10;51.92
54920;BME280;63804;53.120;8.764;2023-05-25T09:48:25;102862.16;;;16.07;51.93
54920;BME280;63804;53.120;8.764;2023-05-25T09:50:55;102873.97;;;16.18;52.28
54920;BME280;63804;53.120;8.764;2023-05-25T09:53:22;102865.19;;;16.30;51.81
54920;BME280;63804;53.120;8.764;2023-05-25T09:55:50;102866.03;;;16.30;51.68
54920;BME280;63804;53.120;8.764;2023-05-25T09:58:22;102875.72;;;16.04;52.32
54920;BME280;63804;53.120;8.764;2023-05-25T10:00:54;102874.47;;;15.96;52.71
54920;BME280;63804;53.120;8.764;2023-05-25T10:03:21;102875.03;;;16.01;52.40
54920;BME280;63804;53.120;8.764;2023-05-25T10:05:50;102861.75;;;16.28;51.49
54920;BME280;63804;53.120;8.764;2023-05-25T10:08:19;102868.47;;;16.48;51.16
54920;BME280;63804;53.120;8.764;2023-05-25T10:10:48;102867.53;;;16.49;50.64
54920;BME280;63804;53.120;8.764;2023-05-25T10:13:22;102869.00;;;16.26;51.07
54920;BME280;63804;53.120;8.764;2023-05-25T10:15:52;102877.22;;;16.08;51.50
54920;BME280;63804;53.120;8.764;2023-05-25T10:18:24;102877.59;;;16.17;50.67
54920;BME280;63804;53.120;8.764;2023-05-25T10:20:59;102878.66;;;16.55;49.75
54920;BME280;63804;53.120;8.764;2023-05-25T10:23:35;102875.94;;;16.84;49.22
54920;BME280;63804;53.120;8.764;2023-05-25T10:26:04;102873.19;;;16.71;49.86
54920;BME280;63804;53.120;8.764;2023-05-25T10:28:36;102880.25;;;16.45;50.14
54920;BME280;63804;53.120;8.764;2023-05-25T10:31:05;102881.28;;;16.43;49.81
54920;BME280;63804;53.120;8.764;2023-05-25T10:33:32;102877.50;;;16.60;49.46
54920;BME280;63804;53.120;8.764;2023-05-25T10:36:02;102880.94;;;16.76;49.79
54920;BME280;63804;53.120;8.764;2023-05-25T10:38:38;102885.28;;;16.91;49.37
54920;BME280;63804;53.120;8.764;2023-05-25T10:41:08;102886.09;;;16.79;49.81
54920;BME280;63804;53.120;8.764;2023-05-25T10:43:37;102890.25;;;16.56;50.14
54920;BME280;63804;53.120;8.764;2023-05-25T10:46:06;102881.59;;;16.38;50.46
54920;BME280;63804;53.120;8.764;2023-05-25T10:48:37;102891.66;;;16.62;49.75
54920;BME280;63804;53.120;8.764;2023-05-25T10:51:05;102884.13;;;16.54;49.75
54920;BME280;63804;53.120;8.764;2023-05-25T10:53:36;102882.94;;;16.31;50.81
54920;BME280;63804;53.120;8.764;2023-05-25T10:56:05;102875.47;;;16.36;51.18
54920;BME280;63804;53.120;8.764;2023-05-25T10:58:33;102876.72;;;16.30;50.60
54920;BME280;63804;53.120;8.764;2023-05-25T11:01:10;102882.13;;;16.57;49.90
54920;BME280;63804;53.120;8.764;2023-05-25T11:04:12;102878.50;;;16.86;48.21
54920;BME280;63804;53.120;8.764;2023-05-25T11:09:25;102877.63;;;16.58;48.40
54920;BME280;63804;53.120;8.764;2023-05-25T11:14:26;102882.81;;;16.32;49.15
54920;BME280;63804;53.120;8.764;2023-05-25T11:17:12;102875.06;;;16.56;48.19
54920;BME280;63804;53.120;8.764;2023-05-25T11:19:48;102886.66;;;16.84;47.51
54920;BME280;63804;53.120;8.764;2023-05-25T11:22:21;102881.63;;;16.79;47.93
54920;BME280;63804;53.120;8.764;2023-05-25T11:24:50;102882.84;;;16.60;48.96
54920;BME280;63804;53.120;8.764;2023-05-25T11:27:44;102883.78;;;16.46;48.98
54920;BME280;63804;53.120;8.764;2023-05-25T11:30:16;102885.66;;;16.44;49.73
54920;BME280;63804;53.120;8.764;2023-05-25T11:32:50;102876.50;;;16.48;49.38
54920;BME280;63804;53.120;8.764;2023-05-25T11:35:17;102880.28;;;16.58;49.24
54920;BME280;63804;53.120;8.764;2023-05-25T11:37:49;102883.19;;;16.41;49.46
54920;BME280;63804;53.120;8.764;2023-05-25T11:40:16;102875.66;;;16.33;49.03
54920;BME280;63804;53.120;8.764;2023-05-25T11:42:45;102871.75;;;16.39;48.79
54920;BME280;63804;53.120;8.764;2023-05-25T11:45:15;102873.13;;;16.58;48.02
54920;BME280;63804;53.120;8.764;2023-05-25T11:47:43;102865.75;;;16.76;47.61
54920;BME280;63804;53.120;8.764;2023-05-25T11:50:14;102862.31;;;16.74;47.80
54920;BME280;63804;53.120;8.764;2023-05-25T11:52:43;102869.56;;;16.72;48.25
54920;BME280;63804;53.120;8.764;2023-05-25T11:55:13;102866.38;;;17.07;47.55
54920;BME280;63804;53.120;8.764;2023-05-25T11:57:41;102867.50;;;16.90;47.71
54920;BME280;63804;53.120;8.764;2023-05-25T12:00:08;102867.16;;;16.82;48.57
54920;BME280;63804;53.120;8.764;2023-05-25T12:02:38;102858.59;;;16.63;48.45
54920;BME280;63804;53.120;8.764;2023-05-25T12:05:06;102866.69;;;16.48;48.89
54920;BME280;63804;53.120;8.764;2023-05-25T12:07:42;102878.00;;;16.52;48.43
54920;BME280;63804;53.120;8.764;2023-05-25T12:10:12;102874.22;;;16.42;48.48
54920;BME280;63804;53.120;8.764;2023-05-25T12:12:43;102871.69;;;16.26;48.77
54920;BME280;63804;53.120;8.764;2023-05-25T12:15:13;102871.94;;;16.36;48.59
54920;BME280;63804;53.120;8.764;2023-05-25T12:17:41;102873.06;;;16.46;47.98
54920;BME280;63804;53.120;8.764;2023-05-25T12:20:10;102865.88;;;16.61;47.61
54920;BME280;63804;53.120;8.764;2023-05-25T12:22:38;102863.63;;;16.81;47.35
54920;BME280;63804;53.120;8.764;2023-05-25T12:25:07;102857.53;;;16.79;48.20
54920;BME280;63804;53.120;8.764;2023-05-25T12:27:34;102863.72;;;16.80;48.38
54920;BME280;63804;53.120;8.764;2023-05-25T12:30:08;102858.00;;;16.72;48.50
54920;BME280;63804;53.120;8.764;2023-05-25T12:32:58;102852.00;;;16.68;48.39
54920;BME280;63804;53.120;8.764;2023-05-25T12:35:43;102847.50;;;16.69;48.07
54920;BME280;63804;53.120;8.764;2023-05-25T12:38:19;102845.88;;;16.93;47.46
54920;BME280;63804;53.120;8.764;2023-05-25T12:41:03;102855.00;;;16.91;47.70
54920;BME280;63804;53.120;8.764;2023-05-25T12:43:38;102840.91;;;16.74;48.69
54920;BME280;63804;53.120;8.764;2023-05-25T12:46:05;102843.13;;;16.68;49.18
54920;BME280;63804;53.120;8.764;2023-05-25T12:48:32;102843.81;;;16.57;49.11
54920;BME280;63804;53.120;8.764;2023-05-25T12:51:00;102852.19;;;16.38;49.41
54920;BME280;63804;53.120;8.764;2023-05-25T12:53:27;102842.72;;;16.32;49.79
54920;BME280;63804;53.120;8.764;2023-05-25T12:56:00;102844.41;;;16.48;49.45
54920;BME280;63804;53.120;8.764;2023-05-25T12:58:28;102851.13;;;16.68;49.02
54920;BME280;63804;53.120;8.764;2023-05-25T13:00:55;102845.66;;;16.84;48.34
54920;BME280;63804;53.120;8.764;2023-05-25T13:03:22;102846.97;;;16.91;48.18
54920;BME280;63804;53.120;8.764;2023-05-25T13:05:49;102833.47;;;16.92;48.27
54920;BME280;63804;53.120;8.764;2023-05-25T13:08:17;102833.63;;;16.76;48.43
54920;BME280;63804;53.120;8.764;2023-05-25T13:10:48;102839.97;;;16.75;48.09